Wilpen, Pennsylvania
Current Conditions -  °F | °C
As of 11:47 AM on Saturday 20 Dec 2014 (Local Time) from KLBE Reporting Station
Broken Clouds Broken Clouds  
Wind Chill: 28°   Ceiling: 20000
Heat Index: 28°   Visibility: 20mi
Dew Point: 19°   Wind: 0mph
Humidity: 69%   Direction: NA
Pressure: 30.26"   Gusts: NA
Location:  40.2437°N, 79.2397°W
Report Text: KLBE 201647Z 00000KT 20SM SCT100 BKN200 M02/M07 A3026
Loading
Personal Weather Stations






























Interactive Weather Map New forecast layout! Learn more

10-Day Weather Forecast

Advertisements
Track Severe Weather on mobile